Friday, June 23, 2017, 7:54 AM EDT
Back to Local

KBGR, Bangor Int'l Airport

Location: Bangor, ME, United States Lat: 44.8
Local Time: 7:54 AM EDT (11:54 GMT) Lon: -68.817
Time Zone: US/Eastern Elev: 193 ft

Show me the last for .
Show Decoded

2017-06-23 06:53 METAR KBGR 231053Z 19003KT 10SM OVC130 16/14 A2983 RMK AO2 SLP096 T01610139 =
2017-06-23 05:53 METAR KBGR 230953Z 18003KT 10SM SCT130 BKN250 14/13 A2982 RMK AO2 SLP096
                 T01440133 =
2017-06-23 04:53 METAR KBGR 230853Z 00000KT 10SM SCT130 BKN250 13/12 A2982 RMK AO2 SLP097
                 T01280122 55011 =
2017-06-23 03:53 METAR KBGR 230753Z 00000KT 10SM FEW120 SCT250 13/12 A2982 RMK AO2 SLP095
                 T01280122 =
2017-06-23 02:53 METAR KBGR 230653Z 00000KT 10SM FEW250 13/13 A2983 RMK AO2 SLP101 T01330128 =
2017-06-23 01:53 METAR KBGR 230553Z 00000KT 10SM FEW250 13/12 A2986 RMK AO2 SLP108 T01330122
                 10217 20128 58004 =
2017-06-23 00:53 METAR KBGR 230453Z 00000KT 10SM FEW250 15/13 A2987 RMK AO2 SLP111 T01500128
                 402610111 =
2017-06-22 23:53 METAR KBGR 230353Z 20003KT 10SM FEW110 SCT250 17/13 A2987 RMK AO2 SLP112
                 T01670128 =
2017-06-22 22:53 METAR KBGR 230253Z 25004KT 10SM BKN110 OVC250 16/12 A2987 RMK AO2 SLP113
                 T01560122 51007 =
2017-06-22 21:53 METAR KBGR 230153Z 25003KT 10SM BKN110 BKN250 17/13 A2987 RMK AO2 SLP112
                 T01720128 =
2017-06-22 20:53 METAR KBGR 230053Z 00000KT 10SM FEW120 BKN250 18/12 A2986 RMK AO2 SLP108
                 T01780122 =
2017-06-22 19:53 METAR KBGR 222353Z 27003KT 10SM SCT120 BKN250 22/11 A2985 RMK AO2 SLP105
                 T02170106 10261 20217 53008 =
2017-06-22 18:53 METAR KBGR 222253Z 31003KT 10SM SCT120 BKN250 23/11 A2983 RMK AO2 SLP099
                 T02280106 =
2017-06-22 17:53 METAR KBGR 222153Z 28004KT 10SM FEW120 BKN250 23/09 A2982 RMK AO2 SLP097
                 T02330094 =
2017-06-22 16:53 METAR KBGR 222053Z 30007KT 10SM BKN250 24/08 A2983 RMK AO2 SLP098 T02440083
                 55005 =
2017-06-22 15:53 METAR KBGR 221953Z 29012KT 10SM SCT080 BKN250 26/08 A2982 RMK AO2 SLP095
                 T02560078 =
2017-06-22 14:53 METAR KBGR 221853Z 30008KT 10SM SCT080 BKN250 24/09 A2983 RMK AO2 SLP099
                 T02440089 =
2017-06-22 13:53 METAR KBGR 221753Z 27010G20KT 10SM SCT070 BKN250 24/09 A2984 RMK AO2 SLP102
                 T02440094 10256 20183 58012 =
2017-06-22 12:53 METAR KBGR 221653Z 28011G16KT 10SM SCT060 BKN250 24/10 A2986 RMK AO2 SLP108
                 T02390100 =
2017-06-22 11:53 METAR KBGR 221553Z 29009KT 10SM BKN055 23/10 A2987 RMK AO2 SLP110 T02280100 =
2017-06-22 10:53 METAR KBGR 221453Z 27008KT 10SM SCT050 BKN250 22/11 A2988 RMK AO2 SLP114
                 T02170106 56007 =
2017-06-22 09:53 METAR KBGR 221353Z 00000KT 10SM FEW040 SCT250 22/11 A2988 RMK AO2 SLP115
                 T02170106 =
2017-06-22 08:53 METAR KBGR 221253Z 24007KT 10SM FEW250 20/11 A2989 RMK AO2 SLP118 T02000111 =

Support USWX by starting your Amazon purchase here.